Allison, Pennsylvania
Current Conditions -  °F | °C
As of 3:53 AM on Wednesday 26 Nov 2014 (Local Time) from KMGW Reporting Station
Broken Clouds Broken Clouds  
Wind Chill: 28°   Ceiling: 11000
Heat Index: 34°   Visibility: 10mi
Dew Point: 24°   Wind: 7mph
Humidity: 67%   Direction: 40°NE
Pressure: 30.07"   Gusts: NA
Location:  39.99°N, 79.86°W
Report Text: KMGW 260853Z AUTO 04006KT 10SM BKN110 01/M04 A3007 RMK AO2 PRESFR SLP186 T00111044 58033 TSNO
Loading
Personal Weather Stations






























Interactive Weather Map New forecast layout! Learn more

10-Day Weather Forecast

Advertisements
Track Severe Weather on mobile